createdAt,value
2023-09-27T00:00:11.381Z,45.15
2023-09-27T00:00:27.402Z,45.14
2023-09-27T00:00:43.501Z,45.17
2023-09-27T00:00:59.582Z,45.17
2023-09-27T00:01:31.802Z,45.18
2023-09-27T00:01:47.938Z,45.18
2023-09-27T00:02:04.099Z,45.18
2023-09-27T00:02:36.287Z,45.19
2023-09-27T00:02:52.315Z,45.19
2023-09-27T00:03:08.388Z,45.2
2023-09-27T00:03:40.538Z,45.19
2023-09-27T00:03:56.672Z,45.18
2023-09-27T00:04:12.716Z,45.19
2023-09-27T00:04:28.800Z,45.19
2023-09-27T00:04:44.957Z,45.2
2023-09-27T00:05:01.216Z,45.19
2023-09-27T00:05:17.194Z,45.19
2023-09-27T00:05:33.283Z,45.19
2023-09-27T00:05:49.414Z,45.18
2023-09-27T00:06:05.422Z,45.2
2023-09-27T00:06:21.651Z,45.2
2023-09-27T00:06:37.567Z,45.19
2023-09-27T00:06:53.672Z,45.19
2023-09-27T00:07:09.791Z,45.19
2023-09-27T00:07:25.872Z,45.19
2023-09-27T00:07:42.015Z,45.2
2023-09-27T00:07:58.102Z,45.19
2023-09-27T00:08:14.211Z,45.19
2023-09-27T00:08:30.252Z,45.17
2023-09-27T00:08:46.325Z,45.18
2023-09-27T00:09:02.403Z,45.14
2023-09-27T00:09:18.516Z,45.19
2023-09-27T00:09:34.618Z,45.19
2023-09-27T00:09:50.703Z,45.19
2023-09-27T00:10:06.788Z,45.19
2023-09-27T00:10:22.900Z,45.19
2023-09-27T00:10:39.012Z,45.19
2023-09-27T00:10:55.114Z,45.19
2023-09-27T00:11:27.261Z,45.2
2023-09-27T00:11:43.337Z,45.19
2023-09-27T00:11:59.461Z,45.19
2023-09-27T00:12:31.647Z,45.21
2023-09-27T00:12:47.734Z,45.21
2023-09-27T00:13:03.868Z,45.17
2023-09-27T00:13:36.057Z,45.22
2023-09-27T00:13:52.123Z,45.21
2023-09-27T00:14:08.229Z,45.21
2023-09-27T00:14:24.321Z,45.21
2023-09-27T00:14:40.404Z,45.21
2023-09-27T00:14:56.517Z,45.21
2023-09-27T00:15:12.889Z,45.21
2023-09-27T00:15:28.679Z,45.21
2023-09-27T00:15:44.766Z,45.21
2023-09-27T00:16:00.971Z,45.21
2023-09-27T00:16:16.984Z,45.21
2023-09-27T00:16:33.132Z,45.21
2023-09-27T00:16:49.218Z,45.21
2023-09-27T00:17:05.311Z,45.21
2023-09-27T00:17:21.369Z,45.21
2023-09-27T00:17:37.621Z,45.22
2023-09-27T00:17:53.572Z,45.22
2023-09-27T00:18:09.760Z,45.21
2023-09-27T00:18:25.783Z,45.21
2023-09-27T00:18:41.804Z,45.22
2023-09-27T00:18:58.154Z,45.22
2023-09-27T00:19:14.038Z,45.22
2023-09-27T00:19:30.081Z,45.21
2023-09-27T00:19:46.193Z,45.22
2023-09-27T00:20:02.380Z,45.22
2023-09-27T00:20:18.427Z,45.22
2023-09-27T00:20:34.488Z,45.22
2023-09-27T00:20:50.598Z,45.22
2023-09-27T00:21:28.897Z,45.23
2023-09-27T00:21:44.999Z,45.24
2023-09-27T00:22:01.096Z,45.23
2023-09-27T00:22:33.275Z,45.24
2023-09-27T00:22:49.431Z,45.22
2023-09-27T00:23:05.499Z,45.21
2023-09-27T00:23:37.665Z,45.21
2023-09-27T00:23:53.746Z,45.21
2023-09-27T00:24:09.846Z,45.21
2023-09-27T00:24:42.023Z,45.22
2023-09-27T00:24:58.106Z,45.22
2023-09-27T00:25:14.223Z,45.22
2023-09-27T00:25:46.416Z,45.22
2023-09-27T00:26:02.567Z,45.22
2023-09-27T00:26:18.636Z,45.23
2023-09-27T00:26:50.797Z,45.25
2023-09-27T00:27:06.879Z,45.23
2023-09-27T00:27:23.002Z,45.32
2023-09-27T00:27:55.157Z,45.25
2023-09-27T00:28:11.257Z,45.25
2023-09-27T00:28:27.397Z,45.25
2023-09-27T00:28:59.613Z,45.25
2023-09-27T00:29:15.681Z,45.25
2023-09-27T00:29:31.789Z,45.25
2023-09-27T00:29:47.828Z,45.25
2023-09-27T00:30:03.909Z,45.22
2023-09-27T00:30:20.008Z,45.25
2023-09-27T00:30:36.147Z,45.25
2023-09-27T00:30:52.214Z,45.25
2023-09-27T00:31:08.269Z,45.26
2023-09-27T00:31:24.497Z,45.25
2023-09-27T00:31:40.491Z,45.25
2023-09-27T00:31:56.643Z,45.22
2023-09-27T00:32:12.708Z,45.22
2023-09-27T00:32:28.848Z,45.23
2023-09-27T00:32:44.941Z,45.06
2023-09-27T00:33:01.101Z,45.23
2023-09-27T00:33:17.062Z,45.23
2023-09-27T00:33:33.200Z,45.23
2023-09-27T00:33:49.254Z,45.23
2023-09-27T00:34:05.351Z,45.23
2023-09-27T00:34:21.432Z,45.23
2023-09-27T00:34:37.542Z,45.23
2023-09-27T00:34:53.626Z,45.25
2023-09-27T00:35:09.769Z,45.23
2023-09-27T00:35:41.916Z,45.25
2023-09-27T00:35:57.970Z,45.25
2023-09-27T00:36:14.100Z,45.25
2023-09-27T00:36:30.198Z,45.26
2023-09-27T00:36:46.277Z,45.23
2023-09-27T00:37:02.354Z,45.25
2023-09-27T00:37:18.441Z,45.25
2023-09-27T00:37:34.546Z,45.26
2023-09-27T00:37:50.673Z,45.25
2023-09-27T00:38:06.767Z,45.26
2023-09-27T00:38:22.878Z,45.26
2023-09-27T00:38:38.928Z,45.26
2023-09-27T00:38:55.048Z,45.26
2023-09-27T00:39:11.122Z,45.25
2023-09-27T00:39:27.224Z,45.25
2023-09-27T00:39:43.296Z,45.25
2023-09-27T00:39:59.398Z,45.25
2023-09-27T00:40:15.494Z,45.26
2023-09-27T00:40:31.607Z,45.14
2023-09-27T00:40:47.679Z,45.26
2023-09-27T00:41:03.848Z,45.26
2023-09-27T00:41:19.919Z,45.27
2023-09-27T00:41:35.952Z,45.26
2023-09-27T00:41:52.072Z,45.22
2023-09-27T00:42:08.160Z,45.26
2023-09-27T00:42:24.277Z,45.27
2023-09-27T00:42:40.357Z,45.26
2023-09-27T00:42:56.442Z,45.26
2023-09-27T00:43:12.558Z,45.25
2023-09-27T00:43:28.643Z,45.23
2023-09-27T00:43:44.734Z,45.25
2023-09-27T00:44:00.886Z,45.25
2023-09-27T00:44:16.884Z,45.26
2023-09-27T00:44:33.051Z,45.27
2023-09-27T00:44:49.105Z,45.27
2023-09-27T00:45:05.196Z,45.26
2023-09-27T00:45:37.375Z,45.26
2023-09-27T00:45:53.505Z,45.26
2023-09-27T00:46:09.625Z,45.27
2023-09-27T00:46:41.761Z,45.26
2023-09-27T00:46:57.860Z,45.37
2023-09-27T00:47:14.048Z,45.28
2023-09-27T00:47:30.049Z,45.28
2023-09-27T00:47:46.153Z,45.27
2023-09-27T00:48:02.261Z,45.3
2023-09-27T00:48:18.360Z,45.26
2023-09-27T00:48:34.439Z,45.29
2023-09-27T00:48:50.540Z,45.29
2023-09-27T00:49:06.584Z,45.28
2023-09-27T00:49:22.690Z,45.29
2023-09-27T00:49:38.804Z,45.28
2023-09-27T00:49:54.904Z,45.29
2023-09-27T00:50:11.071Z,45.29
2023-09-27T00:50:27.095Z,45.29
2023-09-27T00:50:43.169Z,45.27
2023-09-27T00:50:59.275Z,45.26
2023-09-27T00:51:15.369Z,45.25
2023-09-27T00:51:31.461Z,45.25
2023-09-27T00:51:47.544Z,45.21
2023-09-27T00:52:03.661Z,45.2
2023-09-27T00:52:19.743Z,45.2
2023-09-27T00:52:35.832Z,45.2
2023-09-27T00:52:51.944Z,45.19
2023-09-27T00:53:08.100Z,45.2
2023-09-27T00:53:24.240Z,45.21
2023-09-27T00:53:40.209Z,45.22
2023-09-27T00:53:56.327Z,45.22
2023-09-27T00:54:12.399Z,45.22
2023-09-27T00:54:28.490Z,45.22
2023-09-27T00:54:44.592Z,45.23
2023-09-27T00:55:00.691Z,45.22
2023-09-27T00:55:32.876Z,45.22
2023-09-27T00:55:48.987Z,45.23
2023-09-27T00:56:06.658Z,45.22
2023-09-27T00:56:37.286Z,45.22
2023-09-27T00:56:53.337Z,45.21
2023-09-27T00:57:09.459Z,45.21
2023-09-27T00:57:41.614Z,45.2
2023-09-27T00:57:57.710Z,45.21
2023-09-27T00:58:13.796Z,45.19
2023-09-27T00:58:29.897Z,45.2
2023-09-27T00:58:46.014Z,45.11
2023-09-27T00:59:02.221Z,45.2
2023-09-27T00:59:18.202Z,45.19
2023-09-27T00:59:34.480Z,45.2
2023-09-27T00:59:50.367Z,45.2
2023-09-27T01:00:06.459Z,45.18
2023-09-27T01:00:22.571Z,45.2
2023-09-27T01:00:38.673Z,45.2
2023-09-27T01:00:54.744Z,45.21
2023-09-27T01:01:10.899Z,45.2
2023-09-27T01:01:27.020Z,45.19
2023-09-27T01:01:43.082Z,45.2
2023-09-27T01:01:59.209Z,45.19
2023-09-27T01:02:15.237Z,45.2
2023-09-27T01:02:31.400Z,45.2
2023-09-27T01:02:47.595Z,45.2
2023-09-27T01:03:03.543Z,45.21
2023-09-27T01:03:19.643Z,45.2
2023-09-27T01:03:35.702Z,45.2
2023-09-27T01:03:51.820Z,45.19
2023-09-27T01:04:07.885Z,45.18
2023-09-27T01:04:23.970Z,45.18
2023-09-27T01:04:40.066Z,45.18
2023-09-27T01:04:56.224Z,45.18
2023-09-27T01:05:28.450Z,45.18
2023-09-27T01:05:44.538Z,45.18
2023-09-27T01:06:00.648Z,45.17
2023-09-27T01:06:32.723Z,45.17
2023-09-27T01:06:48.828Z,45.18
2023-09-27T01:07:04.952Z,45.18
2023-09-27T01:07:37.113Z,45.16
2023-09-27T01:07:53.239Z,45.13
2023-09-27T01:08:09.311Z,45.13
2023-09-27T01:08:25.401Z,45.14
2023-09-27T01:08:41.496Z,45.14
2023-09-27T01:08:57.573Z,45.13
2023-09-27T01:09:13.671Z,45.18
2023-09-27T01:09:29.766Z,45.13
2023-09-27T01:09:45.884Z,45.13
2023-09-27T01:10:02.008Z,45.12
2023-09-27T01:10:18.055Z,45.13
2023-09-27T01:10:34.153Z,45.13
2023-09-27T01:10:50.265Z,45.13
2023-09-27T01:11:06.409Z,45.12
2023-09-27T01:11:22.481Z,45.12
2023-09-27T01:11:38.695Z,45.12
2023-09-27T01:11:54.614Z,45.13
2023-09-27T01:12:10.734Z,45.13
2023-09-27T01:12:26.830Z,45.13
2023-09-27T01:12:42.954Z,45.13
2023-09-27T01:12:59.036Z,45.12
2023-09-27T01:13:15.079Z,45.12
2023-09-27T01:13:31.180Z,45.12
2023-09-27T01:13:47.282Z,45.11
2023-09-27T01:14:03.400Z,45.09
2023-09-27T01:14:19.545Z,45.09
2023-09-27T01:14:35.636Z,45.07
2023-09-27T01:14:51.654Z,45.04
2023-09-27T01:15:13.898Z,45.04
2023-09-27T01:15:46.081Z,45.04
2023-09-27T01:16:02.189Z,45.03
2023-09-27T01:16:18.318Z,45.05
2023-09-27T01:16:34.377Z,45.04
2023-09-27T01:16:50.489Z,45.04
2023-09-27T01:17:06.545Z,45.05
2023-09-27T01:17:22.719Z,45.08
2023-09-27T01:17:38.806Z,45.08
2023-09-27T01:17:55.016Z,45.07
2023-09-27T01:18:10.985Z,45.08
2023-09-27T01:18:27.012Z,45.23
2023-09-27T01:18:43.114Z,45.08
2023-09-27T01:18:59.208Z,45.06
2023-09-27T01:19:15.348Z,45.04
2023-09-27T01:19:47.484Z,45.03
2023-09-27T01:20:03.607Z,45.02
2023-09-27T01:20:19.827Z,45.01
2023-09-27T01:20:51.877Z,45.01
2023-09-27T01:21:07.977Z,45
2023-09-27T01:21:24.075Z,45.01
2023-09-27T01:21:40.159Z,45
2023-09-27T01:21:56.260Z,45
2023-09-27T01:22:12.365Z,44.98
2023-09-27T01:22:28.440Z,44.99
2023-09-27T01:22:44.531Z,44.98
2023-09-27T01:23:00.624Z,44.96
2023-09-27T01:23:16.826Z,44.99
2023-09-27T01:23:32.837Z,45
2023-09-27T01:23:48.895Z,45
2023-09-27T01:24:05.014Z,45.01
2023-09-27T01:24:21.090Z,45.02
2023-09-27T01:24:37.207Z,45.02
2023-09-27T01:24:53.284Z,45.02
2023-09-27T01:25:09.387Z,45.01
2023-09-27T01:25:25.458Z,45.01
2023-09-27T01:25:41.555Z,45.01
2023-09-27T01:25:57.727Z,45.02
2023-09-27T01:26:13.783Z,45.01
2023-09-27T01:26:29.933Z,45.01
2023-09-27T01:26:45.941Z,45.02
2023-09-27T01:27:02.032Z,45.02
2023-09-27T01:27:18.134Z,45.01
2023-09-27T01:27:34.218Z,45.02
2023-09-27T01:27:50.332Z,45.02
2023-09-27T01:28:06.428Z,45.02
2023-09-27T01:28:22.530Z,45.01
2023-09-27T01:28:38.597Z,45.02
2023-09-27T01:28:54.920Z,45.02
2023-09-27T01:29:10.819Z,45.03
2023-09-27T01:29:42.994Z,45
2023-09-27T01:29:59.080Z,45.01
2023-09-27T01:30:15.172Z,45.02
2023-09-27T01:30:47.372Z,45.01
2023-09-27T01:31:03.466Z,45
2023-09-27T01:31:19.574Z,44.99
2023-09-27T01:31:35.696Z,44.99
2023-09-27T01:31:51.802Z,44.97
2023-09-27T01:32:07.981Z,44.97
2023-09-27T01:32:23.967Z,44.97
2023-09-27T01:32:40.143Z,44.97
2023-09-27T01:32:56.133Z,44.99
2023-09-27T01:33:12.327Z,44.99
2023-09-27T01:33:28.295Z,44.99
2023-09-27T01:33:44.397Z,44.99
2023-09-27T01:34:00.502Z,44.97
2023-09-27T01:34:16.706Z,44.99
2023-09-27T01:34:32.670Z,44.97
2023-09-27T01:34:48.770Z,45
2023-09-27T01:35:04.876Z,45
2023-09-27T01:35:21.023Z,44.88
2023-09-27T01:35:37.052Z,45.03
2023-09-27T01:35:53.187Z,45.03
2023-09-27T01:36:09.296Z,45.03
2023-09-27T01:36:25.331Z,45.03
2023-09-27T01:36:41.435Z,45.05
2023-09-27T01:36:57.531Z,45.04
2023-09-27T01:37:13.642Z,45.05
2023-09-27T01:37:29.730Z,45.05
2023-09-27T01:37:45.800Z,45.05
2023-09-27T01:38:01.948Z,45.05
2023-09-27T01:38:18.143Z,45.05
2023-09-27T01:38:34.136Z,45.04
2023-09-27T01:38:50.202Z,45.03
2023-09-27T01:39:06.288Z,45.03
2023-09-27T01:39:38.454Z,45.03
2023-09-27T01:39:54.573Z,45.03
2023-09-27T01:40:10.674Z,45.02
2023-09-27T01:40:42.858Z,45.02
2023-09-27T01:40:59.022Z,45.03
2023-09-27T01:41:15.086Z,45.03
2023-09-27T01:41:31.173Z,45.03
2023-09-27T01:41:47.244Z,45
2023-09-27T01:42:03.324Z,45.03
2023-09-27T01:42:19.409Z,45.03
2023-09-27T01:42:35.496Z,45.04
2023-09-27T01:42:51.614Z,45.03
2023-09-27T01:43:07.692Z,45.09
2023-09-27T01:43:23.787Z,45.02
2023-09-27T01:43:39.871Z,45.01
2023-09-27T01:43:55.980Z,45
2023-09-27T01:44:12.096Z,45
2023-09-27T01:44:28.228Z,45
2023-09-27T01:44:44.260Z,45
2023-09-27T01:45:00.372Z,44.97
2023-09-27T01:45:16.452Z,44.99
2023-09-27T01:45:32.545Z,44.97
2023-09-27T01:45:48.727Z,44.97
2023-09-27T01:46:04.778Z,44.99
2023-09-27T01:46:20.869Z,44.99
2023-09-27T01:46:36.977Z,45
2023-09-27T01:46:53.038Z,45
2023-09-27T01:47:09.161Z,44.98
2023-09-27T01:47:25.237Z,45
2023-09-27T01:47:41.369Z,45.01
2023-09-27T01:47:57.476Z,45
2023-09-27T01:48:13.610Z,45
2023-09-27T01:48:29.603Z,45.01
2023-09-27T01:48:45.716Z,45.01
2023-09-27T01:49:01.772Z,45.01
2023-09-27T01:49:33.954Z,45.01
2023-09-27T01:49:50.057Z,45.01
2023-09-27T01:50:06.192Z,45.01
2023-09-27T01:50:38.366Z,45
2023-09-27T01:50:54.424Z,44.91
2023-09-27T01:51:10.520Z,45.01
2023-09-27T01:51:26.602Z,45.01
2023-09-27T01:51:42.710Z,45.02
2023-09-27T01:51:58.855Z,45.01
2023-09-27T01:52:14.910Z,45.01
2023-09-27T01:52:30.986Z,45.02
2023-09-27T01:52:47.113Z,45.03
2023-09-27T01:53:03.204Z,45.02
2023-09-27T01:53:19.294Z,45.03
2023-09-27T01:53:35.451Z,45.13
2023-09-27T01:53:51.468Z,45.02
2023-09-27T01:54:07.545Z,45.02
2023-09-27T01:54:23.642Z,45.02
2023-09-27T01:54:39.791Z,45.02
2023-09-27T01:54:55.835Z,45.09
2023-09-27T01:55:11.926Z,45.01
2023-09-27T01:55:28.041Z,45.01
2023-09-27T01:55:44.130Z,45.01
2023-09-27T01:56:00.270Z,45
2023-09-27T01:56:16.384Z,45.01
2023-09-27T01:56:32.436Z,45
2023-09-27T01:56:48.504Z,45.01
2023-09-27T01:57:04.588Z,45.01
2023-09-27T01:57:20.745Z,45.03
2023-09-27T01:57:36.776Z,45.04
2023-09-27T01:57:52.901Z,45.04
2023-09-27T01:58:08.996Z,45.06
2023-09-27T01:58:25.068Z,45.06
2023-09-27T01:58:41.203Z,45.06
2023-09-27T01:58:57.291Z,45.06
2023-09-27T01:59:29.460Z,45.04
2023-09-27T01:59:45.541Z,45.05
2023-09-27T02:00:01.647Z,45.05
2023-09-27T02:00:33.815Z,45.06
2023-09-27T02:00:49.937Z,45.05
2023-09-27T02:01:06.051Z,45.06
2023-09-27T02:01:38.243Z,45.07
2023-09-27T02:01:54.368Z,45.08
2023-09-27T02:02:10.462Z,45.08
2023-09-27T02:02:26.505Z,45.08
2023-09-27T02:02:42.765Z,45.16
2023-09-27T02:02:58.981Z,45.08
2023-09-27T02:03:14.815Z,45.1
2023-09-27T02:03:30.999Z,45.1
2023-09-27T02:03:47.035Z,45.08
2023-09-27T02:04:03.068Z,45.08
2023-09-27T02:04:19.140Z,45.08
2023-09-27T02:04:35.249Z,45.08
2023-09-27T02:04:51.455Z,45.06
2023-09-27T02:05:07.506Z,45.06
2023-09-27T02:05:23.593Z,45.05
2023-09-27T02:05:39.659Z,45.04
2023-09-27T02:05:55.732Z,45.05
2023-09-27T02:06:11.797Z,45.04
2023-09-27T02:06:27.903Z,45.04
2023-09-27T02:06:43.982Z,45.05
2023-09-27T02:07:00.090Z,45.05
2023-09-27T02:07:16.193Z,45.06
2023-09-27T02:07:32.272Z,45.05
2023-09-27T02:07:48.370Z,45.05
2023-09-27T02:08:04.472Z,45.05
2023-09-27T02:08:20.592Z,45.05
2023-09-27T02:08:36.714Z,45.06
2023-09-27T02:08:58.898Z,45.06
2023-09-27T02:09:31.104Z,45.06
2023-09-27T02:09:47.178Z,45.06
2023-09-27T02:10:03.255Z,45.06
2023-09-27T02:10:35.444Z,45.07
2023-09-27T02:10:51.584Z,45.06
2023-09-27T02:11:07.686Z,45.04
2023-09-27T02:11:39.840Z,45.05
2023-09-27T02:11:55.931Z,45.02
2023-09-27T02:12:12.016Z,45.06
2023-09-27T02:12:44.196Z,45.05
2023-09-27T02:13:00.298Z,45.05
2023-09-27T02:13:16.423Z,45.03
2023-09-27T02:13:48.569Z,45.08
2023-09-27T02:14:20.797Z,45.06
2023-09-27T02:14:36.869Z,45.09
2023-09-27T02:14:52.952Z,45.08
2023-09-27T02:15:09.043Z,45.08
2023-09-27T02:15:25.144Z,45.07
2023-09-27T02:15:41.263Z,45.08
2023-09-27T02:15:57.353Z,45.11
2023-09-27T02:16:13.443Z,45.11
2023-09-27T02:16:29.533Z,45.11
2023-09-27T02:16:45.647Z,45.11
2023-09-27T02:17:01.742Z,45.11
2023-09-27T02:17:17.819Z,45.11
2023-09-27T02:17:34.034Z,45.11
2023-09-27T02:17:50.128Z,45.11
2023-09-27T02:18:06.106Z,45.11
2023-09-27T02:18:22.171Z,45.11
2023-09-27T02:18:38.285Z,45.1
2023-09-27T02:18:54.551Z,45.11
2023-09-27T02:19:10.461Z,45.11
2023-09-27T02:19:26.583Z,45.11
2023-09-27T02:19:42.655Z,45.11
2023-09-27T02:19:58.760Z,45.11
2023-09-27T02:20:14.892Z,45.1
2023-09-27T02:20:31.018Z,45.11
2023-09-27T02:20:47.025Z,45.11
2023-09-27T02:21:03.146Z,45.1
2023-09-27T02:21:19.228Z,45.1
2023-09-27T02:21:35.308Z,45.1
2023-09-27T02:21:51.409Z,45.11
2023-09-27T02:22:07.493Z,45.1
2023-09-27T02:22:23.553Z,45.08
2023-09-27T02:22:39.691Z,45.11
2023-09-27T02:22:55.868Z,45.11
2023-09-27T02:23:11.915Z,45.12
2023-09-27T02:23:44.069Z,45.13
2023-09-27T02:24:00.167Z,45.13
2023-09-27T02:24:16.235Z,45.12
2023-09-27T02:24:48.469Z,45.12
2023-09-27T02:25:04.550Z,45.13
2023-09-27T02:25:20.637Z,45.12
2023-09-27T02:25:36.730Z,45.13
2023-09-27T02:25:52.876Z,45.11
2023-09-27T02:26:08.942Z,45.11
2023-09-27T02:26:25.033Z,45.1
2023-09-27T02:26:41.111Z,45.08
2023-09-27T02:26:57.192Z,45.1
2023-09-27T02:27:13.300Z,45.1
2023-09-27T02:27:29.379Z,45.09
2023-09-27T02:27:45.511Z,45.07
2023-09-27T02:28:01.598Z,45.08
2023-09-27T02:28:17.677Z,45.08
2023-09-27T02:28:33.749Z,45.1
2023-09-27T02:28:49.889Z,45.08
2023-09-27T02:29:05.961Z,45.1
2023-09-27T02:29:22.103Z,45.11
2023-09-27T02:29:38.184Z,45.11
2023-09-27T02:29:54.236Z,45.12
2023-09-27T02:30:10.338Z,45.11
2023-09-27T02:30:26.439Z,45.11
2023-09-27T02:30:42.528Z,45.11
2023-09-27T02:30:58.629Z,45.11
2023-09-27T02:31:14.712Z,45.12
2023-09-27T02:31:30.901Z,45.12
2023-09-27T02:31:46.957Z,45.11
2023-09-27T02:32:03.004Z,45.11
2023-09-27T02:32:19.169Z,45.12
2023-09-27T02:32:35.266Z,45.12
2023-09-27T02:32:51.303Z,45.1
2023-09-27T02:33:07.401Z,45.11
2023-09-27T02:33:23.518Z,45.11
2023-09-27T02:33:39.563Z,45.11
2023-09-27T02:34:11.739Z,45.1
2023-09-27T02:34:27.851Z,45.11
2023-09-27T02:34:43.937Z,45.12
2023-09-27T02:35:00.066Z,45.11
2023-09-27T02:35:16.222Z,45.12
2023-09-27T02:35:32.349Z,45.12
2023-09-27T02:35:48.306Z,45.1
2023-09-27T02:36:04.417Z,45.12
2023-09-27T02:36:20.515Z,45.11
2023-09-27T02:36:36.601Z,45.1
2023-09-27T02:36:52.683Z,45.1
2023-09-27T02:37:08.781Z,45.07
2023-09-27T02:37:24.883Z,45.07
2023-09-27T02:37:40.970Z,45.05
2023-09-27T02:37:57.128Z,45.05
2023-09-27T02:38:13.306Z,45.04
2023-09-27T02:38:29.294Z,45.05
2023-09-27T02:38:45.343Z,45.05
2023-09-27T02:39:01.435Z,45.06
2023-09-27T02:39:17.542Z,45.06
2023-09-27T02:39:33.630Z,45.06
2023-09-27T02:39:49.733Z,45.06
2023-09-27T02:40:05.824Z,45.07
2023-09-27T02:40:21.937Z,45.07
2023-09-27T02:40:38.014Z,45.09
2023-09-27T02:40:54.132Z,45.08
2023-09-27T02:41:10.233Z,45.07
2023-09-27T02:41:26.331Z,45.06
2023-09-27T02:41:42.385Z,45.06
2023-09-27T02:41:58.479Z,44.92
2023-09-27T02:42:30.708Z,45.08
2023-09-27T02:42:46.766Z,45.07
2023-09-27T02:43:02.843Z,45.07
2023-09-27T02:43:35.054Z,45.1
2023-09-27T02:43:51.145Z,45.1
2023-09-27T02:44:07.290Z,45.07
2023-09-27T02:44:39.422Z,45.08
2023-09-27T02:44:55.540Z,45.07
2023-09-27T02:45:11.612Z,45.08
2023-09-27T02:45:43.811Z,45.07
2023-09-27T02:45:59.971Z,45.08
2023-09-27T02:46:16.101Z,45.09
2023-09-27T02:47:04.324Z,45.07
2023-09-27T02:47:20.474Z,45.08
2023-09-27T02:48:08.702Z,45.1
2023-09-27T02:48:24.787Z,45.1
2023-09-27T02:48:56.960Z,45.1
2023-09-27T02:49:13.041Z,45.08
2023-09-27T02:49:29.169Z,45.1
2023-09-27T02:50:01.327Z,45.08
2023-09-27T02:50:17.550Z,45.08
2023-09-27T02:50:33.533Z,45.07
2023-09-27T02:51:05.689Z,45.02
2023-09-27T02:51:21.789Z,45.08
2023-09-27T02:51:37.888Z,45.09
2023-09-27T02:52:10.052Z,45.08
2023-09-27T02:52:26.153Z,45.08
2023-09-27T02:52:42.296Z,45.07
2023-09-27T02:53:14.473Z,45.06
2023-09-27T02:53:30.658Z,45.08
2023-09-27T02:53:46.623Z,45.1
2023-09-27T02:54:18.805Z,45.1
2023-09-27T02:54:34.955Z,45.1
2023-09-27T02:54:50.995Z,45.1
2023-09-27T02:55:23.212Z,45.08
2023-09-27T02:55:39.285Z,45.08
2023-09-27T02:55:55.418Z,45.05
2023-09-27T02:56:27.622Z,45.03
2023-09-27T02:56:59.752Z,45.02
2023-09-27T02:57:31.957Z,45.05
2023-09-27T02:58:04.135Z,45.04
2023-09-27T02:58:36.330Z,45.03
2023-09-27T02:58:52.559Z,44.95
2023-09-27T02:59:08.529Z,45.02
2023-09-27T02:59:40.874Z,45.01
2023-09-27T02:59:56.819Z,45.01
2023-09-27T03:00:12.969Z,45.02
2023-09-27T03:00:45.096Z,45.02
2023-09-27T03:01:01.221Z,45.03
2023-09-27T03:01:17.289Z,45.03
2023-09-27T03:01:49.483Z,45.05
2023-09-27T03:02:05.622Z,45.04
2023-09-27T03:02:21.718Z,45.05
2023-09-27T03:02:43.970Z,45.04
2023-09-27T03:03:00.030Z,45.05
2023-09-27T03:03:16.208Z,45.05
2023-09-27T03:03:32.481Z,45.04
2023-09-27T03:03:48.286Z,45.04
2023-09-27T03:04:04.376Z,45.04
2023-09-27T03:04:20.454Z,45.04
2023-09-27T03:04:36.526Z,45.04
2023-09-27T03:04:52.691Z,45.05
2023-09-27T03:05:09.069Z,45.03
2023-09-27T03:05:24.929Z,45.03
2023-09-27T03:05:40.971Z,45.04
2023-09-27T03:05:57.013Z,45.03
2023-09-27T03:06:13.115Z,45.02
2023-09-27T03:06:29.200Z,45.02
2023-09-27T03:06:45.302Z,45.02
2023-09-27T03:07:01.403Z,45
2023-09-27T03:07:17.499Z,45
2023-09-27T03:07:33.585Z,45
2023-09-27T03:07:49.749Z,45.01
2023-09-27T03:08:05.827Z,45.01
2023-09-27T03:08:21.877Z,45.01
2023-09-27T03:08:37.972Z,45
2023-09-27T03:08:54.188Z,45
2023-09-27T03:09:10.153Z,44.97
2023-09-27T03:09:26.252Z,45.04
2023-09-27T03:09:42.337Z,44.96
2023-09-27T03:09:58.429Z,44.95
2023-09-27T03:10:14.530Z,44.95
2023-09-27T03:10:30.624Z,44.94
2023-09-27T03:10:46.722Z,44.94
2023-09-27T03:11:02.863Z,44.95
2023-09-27T03:11:18.947Z,44.95
2023-09-27T03:11:35.024Z,44.95
2023-09-27T03:11:51.096Z,44.94
2023-09-27T03:12:07.194Z,44.92
2023-09-27T03:12:23.288Z,44.95
2023-09-27T03:12:39.382Z,44.95
2023-09-27T03:12:55.464Z,44.96
2023-09-27T03:13:11.564Z,44.96
2023-09-27T03:13:27.644Z,44.96
2023-09-27T03:13:43.748Z,44.94
2023-09-27T03:13:59.916Z,44.97
2023-09-27T03:14:15.962Z,44.97
2023-09-27T03:14:32.073Z,44.98
2023-09-27T03:14:48.146Z,44.99
2023-09-27T03:15:04.264Z,45
2023-09-27T03:15:20.323Z,45.02
2023-09-27T03:15:36.433Z,45.03
2023-09-27T03:15:52.528Z,45.04
2023-09-27T03:16:08.665Z,45.05
2023-09-27T03:16:24.702Z,45.04
2023-09-27T03:16:40.838Z,45.05
2023-09-27T03:16:56.919Z,45.05
2023-09-27T03:17:13.024Z,45.05
2023-09-27T03:17:29.135Z,45.05
2023-09-27T03:17:45.321Z,45.05
2023-09-27T03:18:01.264Z,45.04
2023-09-27T03:18:17.409Z,45.05
2023-09-27T03:18:33.454Z,44.98
2023-09-27T03:18:49.506Z,45.02
2023-09-27T03:19:05.661Z,45.01
2023-09-27T03:19:21.724Z,44.98
2023-09-27T03:19:37.814Z,45.01
2023-09-27T03:20:10.014Z,45.01
2023-09-27T03:20:26.224Z,44.99
2023-09-27T03:20:42.218Z,45.01
2023-09-27T03:21:14.367Z,44.86
2023-09-27T03:21:30.479Z,45.01
2023-09-27T03:21:46.576Z,45.01
2023-09-27T03:22:18.772Z,45.02
2023-09-27T03:22:34.891Z,45.02
2023-09-27T03:22:50.951Z,45.03
2023-09-27T03:23:07.083Z,45.03
2023-09-27T03:23:23.201Z,45.02
2023-09-27T03:23:39.286Z,45.03
2023-09-27T03:23:55.351Z,45.02
2023-09-27T03:24:11.418Z,45.02
2023-09-27T03:24:27.521Z,45.02
2023-09-27T03:24:43.611Z,45.02
2023-09-27T03:24:59.701Z,45.03
2023-09-27T03:25:15.807Z,45.02
2023-09-27T03:25:31.881Z,45.03
2023-09-27T03:25:48.006Z,45.03
2023-09-27T03:26:04.126Z,45.03
2023-09-27T03:26:20.213Z,45.04
2023-09-27T03:26:36.262Z,45.04
2023-09-27T03:26:52.352Z,45.05
2023-09-27T03:27:08.458Z,45.05
2023-09-27T03:27:24.551Z,45.04
2023-09-27T03:27:40.640Z,45.03
2023-09-27T03:27:56.759Z,45.03
2023-09-27T03:28:12.837Z,45.01
2023-09-27T03:28:28.909Z,45
2023-09-27T03:28:45.025Z,45.01
2023-09-27T03:29:01.184Z,44.99
2023-09-27T03:29:17.263Z,45.01
2023-09-27T03:29:33.459Z,45.01
2023-09-27T03:29:49.395Z,45.02
2023-09-27T03:30:05.479Z,45.01
2023-09-27T03:30:21.624Z,44.99
2023-09-27T03:30:37.718Z,44.99
2023-09-27T03:31:09.916Z,45.02
2023-09-27T03:31:25.994Z,45.01
2023-09-27T03:31:42.099Z,45
2023-09-27T03:32:14.269Z,45.02
2023-09-27T03:32:30.374Z,45.04
2023-09-27T03:32:46.474Z,45.04
2023-09-27T03:33:02.657Z,45.04
2023-09-27T03:33:18.679Z,45.02
2023-09-27T03:33:34.767Z,45.03
2023-09-27T03:33:50.811Z,45.03
2023-09-27T03:34:06.903Z,45.03
2023-09-27T03:34:23.032Z,45.03
2023-09-27T03:34:39.087Z,45.03
2023-09-27T03:34:55.204Z,45.03
2023-09-27T03:35:11.309Z,45.03
2023-09-27T03:35:27.481Z,45.03
2023-09-27T03:35:43.476Z,45.03
2023-09-27T03:35:59.586Z,45.03
2023-09-27T03:36:15.672Z,45.03
2023-09-27T03:36:31.743Z,45.02
2023-09-27T03:36:47.836Z,45.02
2023-09-27T03:37:03.943Z,45.03
2023-09-27T03:37:20.038Z,45.04
2023-09-27T03:37:36.131Z,45.03
2023-09-27T03:37:52.240Z,45.04
2023-09-27T03:38:08.369Z,44.96
2023-09-27T03:38:24.458Z,45.03
2023-09-27T03:38:40.611Z,45.02
2023-09-27T03:38:56.591Z,45.01
2023-09-27T03:39:12.702Z,45.01
2023-09-27T03:39:28.781Z,44.98
2023-09-27T03:39:44.934Z,45
2023-09-27T03:40:01.046Z,45
2023-09-27T03:40:17.499Z,44.98
2023-09-27T03:40:33.180Z,44.98
2023-09-27T03:41:05.376Z,44.99
2023-09-27T03:41:21.505Z,44.98
2023-09-27T03:41:37.613Z,44.99
2023-09-27T03:42:09.766Z,45.03
2023-09-27T03:42:25.819Z,45.02
2023-09-27T03:42:41.924Z,45.03
2023-09-27T03:42:57.992Z,45.04
2023-09-27T03:43:14.113Z,45.04
2023-09-27T03:43:30.211Z,45.03
2023-09-27T03:43:46.308Z,45.05
2023-09-27T03:44:02.425Z,45.06
2023-09-27T03:44:18.523Z,45.06
2023-09-27T03:44:34.738Z,45.13
2023-09-27T03:44:50.676Z,45.07
2023-09-27T03:45:06.765Z,45.07
2023-09-27T03:45:22.883Z,45.05
2023-09-27T03:45:38.949Z,45.05
2023-09-27T03:45:55.059Z,45.05
2023-09-27T03:46:11.157Z,45.06
2023-09-27T03:46:27.252Z,45.06
2023-09-27T03:46:43.452Z,45.07
2023-09-27T03:46:59.576Z,45.07
2023-09-27T03:47:15.656Z,45.07
2023-09-27T03:47:31.730Z,45.07
2023-09-27T03:47:47.785Z,45.07
2023-09-27T03:48:03.861Z,45.06
2023-09-27T03:48:20.013Z,45.07
2023-09-27T03:48:36.031Z,45.06
2023-09-27T03:48:52.295Z,45.05